ポートオブスペイン の空港の天気 - METARとTAF

ピアルコ国際空港(ポートオブスペイン) ( TTPP / POS ) - トリニダード・トバゴ ポートオブスペイン (トリニダード島)
飛行場実況気象(Metar)
観測時間08/11 03:00 AST (08/11 07:00 UTC)
風向・風速静穏 0m/s
視程10km以上
天気現象
少しの雲 雲底高度 490m
気温24℃
湿度94%
気圧1010hPa
METARTTPP 110700Z 00000KT 9999 FEW016 24/23 Q1010 NOSIG
過去の天気等 Google飛行場航空写真 Wunderground天気予報

過去48時間のMETAR

飛行場予報(TAF)
発表時間: 8/11 00:00 AST (8/11 04:00 UTC)
予報対象時間: 11日2時 AST ~ 12日2時 AST
風向・風速静穏
視程10km以上
少しの雲 雲底高度 490m
11日5時 AST ~ 11日9時 AST に 確率 30% で一時的に
視程5000m
天気現象しゅう雨
全天の8割程度の雲 雲底高度 430m
11日6時 AST ~ 11日8時 AST に徐々に
風向・風速東 5m/s
全天の8割程度の雲 雲底高度 550m
11日12時 AST ~ 11日16時 AST に 確率 40% で一時的に
風向・風速東 5m/s 瞬間風速 13m/s
視程2000m
天気現象雷雨
全天の4割程度の積乱雲 雲底高度 300m
TAF TTPP 110400Z 1106/1206 00000KT 9999 FEW016
PROB30 TEMPO 1109/1113 5000 SHRA BKN014
BECMG 1110/1112 09010KT BKN018
PROB40 TEMPO 1116/1120 09010G25KT 2000 TSRA SCT010CB